sensor_id;sensor_type;location;lat;lon;timestamp;P1;durP1;ratioP1;P2;durP2;ratioP2
27666;SDS011;15074;50.940;5.282;2023-05-07T00:02:21;8.95;;;8.25;;
27666;SDS011;15074;50.940;5.282;2023-05-07T00:04:47;9.45;;;8.57;;
27666;SDS011;15074;50.940;5.282;2023-05-07T00:07:13;8.48;;;7.78;;
27666;SDS011;15074;50.940;5.282;2023-05-07T00:09:39;8.40;;;7.60;;
27666;SDS011;15074;50.940;5.282;2023-05-07T00:12:05;9.63;;;8.57;;
27666;SDS011;15074;50.940;5.282;2023-05-07T00:14:31;9.07;;;8.27;;
27666;SDS011;15074;50.940;5.282;2023-05-07T00:16:57;9.20;;;8.55;;
27666;SDS011;15074;50.940;5.282;2023-05-07T00:19:22;8.43;;;7.63;;
27666;SDS011;15074;50.940;5.282;2023-05-07T00:21:48;8.70;;;8.05;;
27666;SDS011;15074;50.940;5.282;2023-05-07T00:24:14;9.70;;;9.00;;
27666;SDS011;15074;50.940;5.282;2023-05-07T00:26:40;9.77;;;9.05;;
27666;SDS011;15074;50.940;5.282;2023-05-07T00:29:05;10.50;;;9.70;;
27666;SDS011;15074;50.940;5.282;2023-05-07T00:31:31;10.35;;;9.55;;
27666;SDS011;15074;50.940;5.282;2023-05-07T00:33:57;10.30;;;9.30;;
27666;SDS011;15074;50.940;5.282;2023-05-07T00:36:22;10.65;;;9.85;;
27666;SDS011;15074;50.940;5.282;2023-05-07T00:38:48;10.65;;;9.70;;
27666;SDS011;15074;50.940;5.282;2023-05-07T00:41:13;10.90;;;9.82;;
27666;SDS011;15074;50.940;5.282;2023-05-07T00:43:40;11.20;;;10.18;;
27666;SDS011;15074;50.940;5.282;2023-05-07T00:46:05;9.63;;;8.93;;
27666;SDS011;15074;50.940;5.282;2023-05-07T00:48:31;10.32;;;9.57;;
27666;SDS011;15074;50.940;5.282;2023-05-07T00:50:57;10.20;;;9.43;;
27666;SDS011;15074;50.940;5.282;2023-05-07T00:53:23;9.57;;;8.85;;
27666;SDS011;15074;50.940;5.282;2023-05-07T00:55:49;9.32;;;8.63;;
27666;SDS011;15074;50.940;5.282;2023-05-07T00:58:15;8.23;;;7.43;;
27666;SDS011;15074;50.940;5.282;2023-05-07T01:00:41;7.78;;;7.00;;
27666;SDS011;15074;50.940;5.282;2023-05-07T01:03:07;9.18;;;8.57;;
27666;SDS011;15074;50.940;5.282;2023-05-07T01:05:32;9.48;;;8.57;;
27666;SDS011;15074;50.940;5.282;2023-05-07T01:07:58;9.02;;;8.32;;
27666;SDS011;15074;50.940;5.282;2023-05-07T01:10:25;9.63;;;8.93;;
27666;SDS011;15074;50.940;5.282;2023-05-07T01:12:51;9.52;;;8.80;;
27666;SDS011;15074;50.940;5.282;2023-05-07T01:15:18;8.20;;;7.40;;
27666;SDS011;15074;50.940;5.282;2023-05-07T01:17:44;8.02;;;7.43;;
27666;SDS011;15074;50.940;5.282;2023-05-07T01:20:10;7.93;;;7.22;;
27666;SDS011;15074;50.940;5.282;2023-05-07T01:22:37;8.52;;;7.82;;
27666;SDS011;15074;50.940;5.282;2023-05-07T01:25:04;9.95;;;7.85;;
27666;SDS011;15074;50.940;5.282;2023-05-07T01:27:31;9.27;;;8.43;;
27666;SDS011;15074;50.940;5.282;2023-05-07T01:29:58;9.23;;;8.38;;
27666;SDS011;15074;50.940;5.282;2023-05-07T01:32:27;8.00;;;7.40;;
27666;SDS011;15074;50.940;5.282;2023-05-07T01:34:58;8.80;;;8.18;;
27666;SDS011;15074;50.940;5.282;2023-05-07T01:37:26;8.07;;;7.47;;
27666;SDS011;15074;50.940;5.282;2023-05-07T01:39:52;8.88;;;7.47;;
27666;SDS011;15074;50.940;5.282;2023-05-07T01:42:19;7.93;;;7.32;;
27666;SDS011;15074;50.940;5.282;2023-05-07T01:44:45;7.78;;;7.07;;
27666;SDS011;15074;50.940;5.282;2023-05-07T01:47:11;11.27;;;7.82;;
27666;SDS011;15074;50.940;5.282;2023-05-07T01:49:38;9.90;;;7.18;;
27666;SDS011;15074;50.940;5.282;2023-05-07T01:52:05;7.75;;;7.13;;
27666;SDS011;15074;50.940;5.282;2023-05-07T01:54:31;8.30;;;7.60;;
27666;SDS011;15074;50.940;5.282;2023-05-07T01:56:56;8.00;;;7.35;;
27666;SDS011;15074;50.940;5.282;2023-05-07T01:59:22;8.38;;;7.75;;
27666;SDS011;15074;50.940;5.282;2023-05-07T02:01:48;8.45;;;7.70;;
27666;SDS011;15074;50.940;5.282;2023-05-07T02:04:13;7.63;;;6.97;;
27666;SDS011;15074;50.940;5.282;2023-05-07T02:06:39;8.00;;;7.40;;
27666;SDS011;15074;50.940;5.282;2023-05-07T02:09:05;8.48;;;7.60;;
27666;SDS011;15074;50.940;5.282;2023-05-07T02:11:31;7.90;;;7.30;;
27666;SDS011;15074;50.940;5.282;2023-05-07T02:13:56;8.52;;;7.72;;
27666;SDS011;15074;50.940;5.282;2023-05-07T02:16:22;10.02;;;6.82;;
27666;SDS011;15074;50.940;5.282;2023-05-07T02:18:48;8.30;;;7.57;;
27666;SDS011;15074;50.940;5.282;2023-05-07T02:21:14;7.20;;;6.63;;
27666;SDS011;15074;50.940;5.282;2023-05-07T02:23:40;8.32;;;7.63;;
27666;SDS011;15074;50.940;5.282;2023-05-07T02:26:06;7.53;;;6.93;;
27666;SDS011;15074;50.940;5.282;2023-05-07T02:28:31;8.45;;;6.97;;
27666;SDS011;15074;50.940;5.282;2023-05-07T02:30:57;7.53;;;6.82;;
27666;SDS011;15074;50.940;5.282;2023-05-07T02:33:25;8.80;;;8.02;;
27666;SDS011;15074;50.940;5.282;2023-05-07T02:35:51;7.97;;;7.38;;
27666;SDS011;15074;50.940;5.282;2023-05-07T02:38:17;8.65;;;7.88;;
27666;SDS011;15074;50.940;5.282;2023-05-07T02:40:43;8.48;;;7.82;;
27666;SDS011;15074;50.940;5.282;2023-05-07T02:43:09;7.82;;;7.22;;
27666;SDS011;15074;50.940;5.282;2023-05-07T02:45:34;8.80;;;8.10;;
27666;SDS011;15074;50.940;5.282;2023-05-07T02:48:02;9.45;;;8.10;;
27666;SDS011;15074;50.940;5.282;2023-05-07T02:50:28;8.98;;;8.27;;
27666;SDS011;15074;50.940;5.282;2023-05-07T02:52:54;7.82;;;7.13;;
27666;SDS011;15074;50.940;5.282;2023-05-07T02:55:20;9.70;;;7.65;;
27666;SDS011;15074;50.940;5.282;2023-05-07T02:57:46;8.05;;;7.45;;
27666;SDS011;15074;50.940;5.282;2023-05-07T03:00:15;8.50;;;7.80;;
27666;SDS011;15074;50.940;5.282;2023-05-07T03:02:43;9.27;;;8.35;;
27666;SDS011;15074;50.940;5.282;2023-05-07T03:05:09;9.60;;;8.82;;
27666;SDS011;15074;50.940;5.282;2023-05-07T03:07:35;9.18;;;8.38;;
27666;SDS011;15074;50.940;5.282;2023-05-07T03:10:02;9.38;;;8.57;;
27666;SDS011;15074;50.940;5.282;2023-05-07T03:12:29;9.10;;;8.20;;
27666;SDS011;15074;50.940;5.282;2023-05-07T03:14:55;9.07;;;8.30;;
27666;SDS011;15074;50.940;5.282;2023-05-07T03:17:21;9.60;;;8.55;;
27666;SDS011;15074;50.940;5.282;2023-05-07T03:19:47;9.75;;;8.85;;
27666;SDS011;15074;50.940;5.282;2023-05-07T03:22:13;9.43;;;8.73;;
27666;SDS011;15074;50.940;5.282;2023-05-07T03:24:39;9.98;;;9.18;;
27666;SDS011;15074;50.940;5.282;2023-05-07T03:27:05;9.98;;;8.70;;
27666;SDS011;15074;50.940;5.282;2023-05-07T03:29:31;9.68;;;8.88;;
27666;SDS011;15074;50.940;5.282;2023-05-07T03:31:56;10.32;;;9.43;;
27666;SDS011;15074;50.940;5.282;2023-05-07T03:34:22;10.23;;;9.43;;
27666;SDS011;15074;50.940;5.282;2023-05-07T03:36:48;9.48;;;8.77;;
27666;SDS011;15074;50.940;5.282;2023-05-07T03:39:14;9.32;;;8.40;;
27666;SDS011;15074;50.940;5.282;2023-05-07T03:41:40;9.30;;;8.50;;
27666;SDS011;15074;50.940;5.282;2023-05-07T03:44:05;9.80;;;8.95;;
27666;SDS011;15074;50.940;5.282;2023-05-07T03:46:31;10.32;;;9.52;;
27666;SDS011;15074;50.940;5.282;2023-05-07T03:48:58;9.15;;;8.25;;
27666;SDS011;15074;50.940;5.282;2023-05-07T03:51:24;9.68;;;8.95;;
27666;SDS011;15074;50.940;5.282;2023-05-07T03:53:50;10.07;;;9.18;;
27666;SDS011;15074;50.940;5.282;2023-05-07T03:56:18;11.05;;;10.15;;
27666;SDS011;15074;50.940;5.282;2023-05-07T03:58:44;10.80;;;9.90;;
27666;SDS011;15074;50.940;5.282;2023-05-07T04:01:10;9.93;;;9.02;;
27666;SDS011;15074;50.940;5.282;2023-05-07T04:03:36;12.57;;;9.40;;
27666;SDS011;15074;50.940;5.282;2023-05-07T04:06:02;10.60;;;9.65;;
27666;SDS011;15074;50.940;5.282;2023-05-07T04:08:28;10.50;;;8.98;;
27666;SDS011;15074;50.940;5.282;2023-05-07T04:10:57;12.15;;;10.77;;
27666;SDS011;15074;50.940;5.282;2023-05-07T04:13:23;11.45;;;10.32;;
27666;SDS011;15074;50.940;5.282;2023-05-07T04:15:49;10.77;;;9.95;;
27666;SDS011;15074;50.940;5.282;2023-05-07T04:18:15;11.40;;;10.60;;
27666;SDS011;15074;50.940;5.282;2023-05-07T04:20:41;11.07;;;10.15;;
27666;SDS011;15074;50.940;5.282;2023-05-07T04:23:07;11.20;;;10.20;;
27666;SDS011;15074;50.940;5.282;2023-05-07T04:25:33;10.25;;;9.25;;
27666;SDS011;15074;50.940;5.282;2023-05-07T04:27:59;11.25;;;10.35;;
27666;SDS011;15074;50.940;5.282;2023-05-07T04:30:25;11.18;;;10.07;;
27666;SDS011;15074;50.940;5.282;2023-05-07T04:32:51;10.70;;;9.85;;
27666;SDS011;15074;50.940;5.282;2023-05-07T04:35:17;11.25;;;10.27;;
27666;SDS011;15074;50.940;5.282;2023-05-07T04:37:43;11.63;;;10.73;;
27666;SDS011;15074;50.940;5.282;2023-05-07T04:40:09;10.65;;;9.85;;
27666;SDS011;15074;50.940;5.282;2023-05-07T04:42:35;10.45;;;9.65;;
27666;SDS011;15074;50.940;5.282;2023-05-07T04:45:01;11.93;;;10.93;;
27666;SDS011;15074;50.940;5.282;2023-05-07T04:47:27;10.18;;;9.38;;
27666;SDS011;15074;50.940;5.282;2023-05-07T04:49:52;11.07;;;10.15;;
27666;SDS011;15074;50.940;5.282;2023-05-07T04:52:18;11.25;;;10.30;;
27666;SDS011;15074;50.940;5.282;2023-05-07T04:54:44;11.90;;;10.23;;
27666;SDS011;15074;50.940;5.282;2023-05-07T04:57:10;9.65;;;8.85;;
27666;SDS011;15074;50.940;5.282;2023-05-07T04:59:35;10.40;;;9.48;;
27666;SDS011;15074;50.940;5.282;2023-05-07T05:02:01;9.60;;;8.80;;
27666;SDS011;15074;50.940;5.282;2023-05-07T05:04:29;10.07;;;9.25;;
27666;SDS011;15074;50.940;5.282;2023-05-07T05:06:54;10.40;;;9.50;;
27666;SDS011;15074;50.940;5.282;2023-05-07T05:09:20;9.55;;;8.65;;
27666;SDS011;15074;50.940;5.282;2023-05-07T05:11:46;9.60;;;8.70;;
27666;SDS011;15074;50.940;5.282;2023-05-07T05:14:11;9.77;;;9.07;;
27666;SDS011;15074;50.940;5.282;2023-05-07T05:16:37;10.73;;;9.65;;
27666;SDS011;15074;50.940;5.282;2023-05-07T05:19:03;9.02;;;8.32;;
27666;SDS011;15074;50.940;5.282;2023-05-07T05:21:28;9.70;;;9.00;;
27666;SDS011;15074;50.940;5.282;2023-05-07T05:23:54;10.20;;;9.18;;
27666;SDS011;15074;50.940;5.282;2023-05-07T05:26:20;10.32;;;9.55;;
27666;SDS011;15074;50.940;5.282;2023-05-07T05:28:46;10.90;;;10.10;;
27666;SDS011;15074;50.940;5.282;2023-05-07T05:31:12;10.50;;;9.65;;
27666;SDS011;15074;50.940;5.282;2023-05-07T05:33:39;10.40;;;9.60;;
27666;SDS011;15074;50.940;5.282;2023-05-07T05:36:05;11.38;;;10.40;;
27666;SDS011;15074;50.940;5.282;2023-05-07T05:38:31;11.65;;;10.55;;
27666;SDS011;15074;50.940;5.282;2023-05-07T05:40:57;12.45;;;11.55;;
27666;SDS011;15074;50.940;5.282;2023-05-07T05:43:22;12.20;;;11.30;;
27666;SDS011;15074;50.940;5.282;2023-05-07T05:45:48;11.98;;;11.07;;
27666;SDS011;15074;50.940;5.282;2023-05-07T05:48:14;11.13;;;10.32;;
27666;SDS011;15074;50.940;5.282;2023-05-07T05:50:41;11.75;;;10.65;;
27666;SDS011;15074;50.940;5.282;2023-05-07T05:53:07;11.00;;;10.20;;
27666;SDS011;15074;50.940;5.282;2023-05-07T05:55:33;9.70;;;9.00;;
27666;SDS011;15074;50.940;5.282;2023-05-07T05:58:00;9.98;;;9.18;;
27666;SDS011;15074;50.940;5.282;2023-05-07T06:00:26;9.38;;;8.57;;
27666;SDS011;15074;50.940;5.282;2023-05-07T06:02:52;9.88;;;9.13;;
27666;SDS011;15074;50.940;5.282;2023-05-07T06:05:18;9.90;;;9.15;;
27666;SDS011;15074;50.940;5.282;2023-05-07T06:07:44;10.75;;;9.82;;
27666;SDS011;15074;50.940;5.282;2023-05-07T06:10:09;10.15;;;9.38;;
27666;SDS011;15074;50.940;5.282;2023-05-07T06:12:35;9.88;;;9.13;;
27666;SDS011;15074;50.940;5.282;2023-05-07T06:15:01;9.43;;;8.52;;
27666;SDS011;15074;50.940;5.282;2023-05-07T06:17:27;8.88;;;8.18;;
27666;SDS011;15074;50.940;5.282;2023-05-07T06:19:52;9.02;;;8.32;;
27666;SDS011;15074;50.940;5.282;2023-05-07T06:22:18;8.93;;;8.23;;
27666;SDS011;15074;50.940;5.282;2023-05-07T06:24:44;9.18;;;8.48;;
27666;SDS011;15074;50.940;5.282;2023-05-07T06:27:10;11.05;;;8.07;;
27666;SDS011;15074;50.940;5.282;2023-05-07T06:29:35;9.43;;;8.38;;
27666;SDS011;15074;50.940;5.282;2023-05-07T06:32:10;8.73;;;7.97;;
27666;SDS011;15074;50.940;5.282;2023-05-07T06:34:38;9.10;;;8.40;;
27666;SDS011;15074;50.940;5.282;2023-05-07T06:37:04;10.10;;;9.30;;
27666;SDS011;15074;50.940;5.282;2023-05-07T06:39:31;9.35;;;8.63;;
27666;SDS011;15074;50.940;5.282;2023-05-07T06:41:57;8.63;;;7.93;;
27666;SDS011;15074;50.940;5.282;2023-05-07T06:44:23;8.10;;;7.38;;
27666;SDS011;15074;50.940;5.282;2023-05-07T06:46:49;9.02;;;8.32;;
27666;SDS011;15074;50.940;5.282;2023-05-07T06:49:14;8.32;;;7.72;;
27666;SDS011;15074;50.940;5.282;2023-05-07T06:51:40;8.15;;;7.55;;
27666;SDS011;15074;50.940;5.282;2023-05-07T06:54:06;7.95;;;7.35;;
27666;SDS011;15074;50.940;5.282;2023-05-07T06:56:32;8.23;;;7.63;;
27666;SDS011;15074;50.940;5.282;2023-05-07T06:58:59;8.30;;;7.60;;
27666;SDS011;15074;50.940;5.282;2023-05-07T07:01:25;7.90;;;7.30;;
27666;SDS011;15074;50.940;5.282;2023-05-07T07:03:51;7.97;;;7.25;;
27666;SDS011;15074;50.940;5.282;2023-05-07T07:06:17;7.35;;;6.72;;
27666;SDS011;15074;50.940;5.282;2023-05-07T07:08:43;8.00;;;7.30;;
27666;SDS011;15074;50.940;5.282;2023-05-07T07:11:09;7.53;;;6.90;;
27666;SDS011;15074;50.940;5.282;2023-05-07T07:13:35;6.88;;;6.38;;
27666;SDS011;15074;50.940;5.282;2023-05-07T07:16:02;7.20;;;6.60;;
27666;SDS011;15074;50.940;5.282;2023-05-07T07:18:28;7.18;;;6.47;;
27666;SDS011;15074;50.940;5.282;2023-05-07T07:20:54;6.85;;;6.03;;
27666;SDS011;15074;50.940;5.282;2023-05-07T07:23:19;8.18;;;7.03;;
27666;SDS011;15074;50.940;5.282;2023-05-07T07:25:45;7.05;;;6.55;;
27666;SDS011;15074;50.940;5.282;2023-05-07T07:28:11;7.72;;;7.10;;
27666;SDS011;15074;50.940;5.282;2023-05-07T07:30:37;6.40;;;5.80;;
27666;SDS011;15074;50.940;5.282;2023-05-07T07:33:04;6.35;;;5.85;;
27666;SDS011;15074;50.940;5.282;2023-05-07T07:35:30;5.70;;;5.20;;
27666;SDS011;15074;50.940;5.282;2023-05-07T07:37:56;6.00;;;5.50;;
27666;SDS011;15074;50.940;5.282;2023-05-07T07:40:22;16.02;;;5.60;;
27666;SDS011;15074;50.940;5.282;2023-05-07T07:42:48;6.90;;;5.57;;
27666;SDS011;15074;50.940;5.282;2023-05-07T07:45:14;5.65;;;5.15;;
27666;SDS011;15074;50.940;5.282;2023-05-07T07:47:40;7.43;;;5.35;;
27666;SDS011;15074;50.940;5.282;2023-05-07T07:50:06;5.53;;;5.00;;
27666;SDS011;15074;50.940;5.282;2023-05-07T07:52:32;5.70;;;5.30;;
27666;SDS011;15074;50.940;5.282;2023-05-07T07:54:58;7.72;;;4.97;;
27666;SDS011;15074;50.940;5.282;2023-05-07T07:57:24;5.55;;;5.05;;
27666;SDS011;15074;50.940;5.282;2023-05-07T07:59:50;4.32;;;3.92;;
27666;SDS011;15074;50.940;5.282;2023-05-07T08:02:16;4.60;;;4.20;;
27666;SDS011;15074;50.940;5.282;2023-05-07T08:04:42;5.30;;;4.35;;
27666;SDS011;15074;50.940;5.282;2023-05-07T08:07:09;4.53;;;4.13;;
27666;SDS011;15074;50.940;5.282;2023-05-07T08:09:36;5.13;;;4.65;;
27666;SDS011;15074;50.940;5.282;2023-05-07T08:12:02;5.40;;;4.60;;
27666;SDS011;15074;50.940;5.282;2023-05-07T08:14:28;4.63;;;4.32;;
27666;SDS011;15074;50.940;5.282;2023-05-07T08:16:54;5.18;;;4.45;;
27666;SDS011;15074;50.940;5.282;2023-05-07T08:19:20;8.02;;;5.05;;
27666;SDS011;15074;50.940;5.282;2023-05-07T08:21:47;5.90;;;5.40;;
27666;SDS011;15074;50.940;5.282;2023-05-07T08:24:16;5.57;;;5.07;;
27666;SDS011;15074;50.940;5.282;2023-05-07T08:26:42;5.35;;;4.97;;
27666;SDS011;15074;50.940;5.282;2023-05-07T08:29:10;5.50;;;4.97;;
27666;SDS011;15074;50.940;5.282;2023-05-07T08:31:36;5.35;;;4.95;;
27666;SDS011;15074;50.940;5.282;2023-05-07T08:34:03;5.95;;;4.88;;
27666;SDS011;15074;50.940;5.282;2023-05-07T08:36:30;5.45;;;5.00;;
27666;SDS011;15074;50.940;5.282;2023-05-07T08:38:55;6.00;;;5.50;;
27666;SDS011;15074;50.940;5.282;2023-05-07T08:41:21;5.20;;;4.70;;
27666;SDS011;15074;50.940;5.282;2023-05-07T08:43:48;6.15;;;4.50;;
27666;SDS011;15074;50.940;5.282;2023-05-07T08:46:18;4.40;;;4.00;;
27666;SDS011;15074;50.940;5.282;2023-05-07T08:48:47;5.80;;;4.70;;
27666;SDS011;15074;50.940;5.282;2023-05-07T08:51:15;5.18;;;4.03;;
27666;SDS011;15074;50.940;5.282;2023-05-07T08:53:43;6.22;;;4.70;;
27666;SDS011;15074;50.940;5.282;2023-05-07T08:56:09;5.13;;;4.72;;
27666;SDS011;15074;50.940;5.282;2023-05-07T08:58:35;6.65;;;4.57;;
27666;SDS011;15074;50.940;5.282;2023-05-07T09:01:02;4.90;;;4.50;;
27666;SDS011;15074;50.940;5.282;2023-05-07T09:03:32;9.80;;;4.60;;
27666;SDS011;15074;50.940;5.282;2023-05-07T09:05:58;4.45;;;4.05;;
27666;SDS011;15074;50.940;5.282;2023-05-07T09:08:24;5.18;;;4.60;;
27666;SDS011;15074;50.940;5.282;2023-05-07T09:13:17;4.90;;;4.40;;
27666;SDS011;15074;50.940;5.282;2023-05-07T09:15:43;4.75;;;4.35;;
27666;SDS011;15074;50.940;5.282;2023-05-07T09:18:08;4.68;;;4.28;;
27666;SDS011;15074;50.940;5.282;2023-05-07T09:20:36;5.28;;;4.78;;
27666;SDS011;15074;50.940;5.282;2023-05-07T09:23:02;5.75;;;5.35;;
27666;SDS011;15074;50.940;5.282;2023-05-07T09:25:29;5.40;;;4.95;;
27666;SDS011;15074;50.940;5.282;2023-05-07T09:27:59;5.32;;;4.88;;
27666;SDS011;15074;50.940;5.282;2023-05-07T09:30:28;5.22;;;4.82;;
27666;SDS011;15074;50.940;5.282;2023-05-07T09:32:55;4.53;;;4.13;;
27666;SDS011;15074;50.940;5.282;2023-05-07T09:35:25;6.75;;;4.57;;
27666;SDS011;15074;50.940;5.282;2023-05-07T09:37:57;4.78;;;3.70;;
27666;SDS011;15074;50.940;5.282;2023-05-07T09:40:28;4.95;;;3.55;;
27666;SDS011;15074;50.940;5.282;2023-05-07T09:42:55;4.22;;;2.70;;
27666;SDS011;15074;50.940;5.282;2023-05-07T09:45:25;4.15;;;3.25;;
27666;SDS011;15074;50.940;5.282;2023-05-07T09:47:53;6.22;;;3.78;;
27666;SDS011;15074;50.940;5.282;2023-05-07T09:50:21;5.55;;;3.85;;
27666;SDS011;15074;50.940;5.282;2023-05-07T09:52:54;5.15;;;4.22;;
27666;SDS011;15074;50.940;5.282;2023-05-07T09:55:22;4.45;;;3.88;;
27666;SDS011;15074;50.940;5.282;2023-05-07T09:57:50;5.18;;;4.20;;
27666;SDS011;15074;50.940;5.282;2023-05-07T10:00:18;6.20;;;4.55;;
27666;SDS011;15074;50.940;5.282;2023-05-07T10:02:48;7.85;;;5.28;;
27666;SDS011;15074;50.940;5.282;2023-05-07T10:05:17;5.22;;;4.70;;
27666;SDS011;15074;50.940;5.282;2023-05-07T10:07:45;6.25;;;4.80;;
27666;SDS011;15074;50.940;5.282;2023-05-07T10:10:11;10.40;;;7.00;;
27666;SDS011;15074;50.940;5.282;2023-05-07T10:12:38;4.57;;;4.10;;
27666;SDS011;15074;50.940;5.282;2023-05-07T10:15:08;5.72;;;4.72;;
27666;SDS011;15074;50.940;5.282;2023-05-07T10:17:38;6.75;;;5.32;;
27666;SDS011;15074;50.940;5.282;2023-05-07T10:20:05;11.65;;;4.80;;
27666;SDS011;15074;50.940;5.282;2023-05-07T10:22:33;6.40;;;5.27;;
27666;SDS011;15074;50.940;5.282;2023-05-07T10:25:06;6.15;;;5.65;;
27666;SDS011;15074;50.940;5.282;2023-05-07T10:27:39;6.88;;;6.18;;
27666;SDS011;15074;50.940;5.282;2023-05-07T10:32:48;5.78;;;5.22;;
27666;SDS011;15074;50.940;5.282;2023-05-07T10:35:20;6.35;;;5.70;;
27666;SDS011;15074;50.940;5.282;2023-05-07T10:37:49;7.35;;;5.88;;
27666;SDS011;15074;50.940;5.282;2023-05-07T10:40:16;6.47;;;5.75;;
27666;SDS011;15074;50.940;5.282;2023-05-07T10:43:05;10.55;;;6.72;;
27666;SDS011;15074;50.940;5.282;2023-05-07T10:45:31;7.93;;;6.20;;
27666;SDS011;15074;50.940;5.282;2023-05-07T10:48:05;5.95;;;5.28;;
27666;SDS011;15074;50.940;5.282;2023-05-07T10:50:32;6.45;;;5.20;;
27666;SDS011;15074;50.940;5.282;2023-05-07T10:55:43;7.57;;;6.20;;
27666;SDS011;15074;50.940;5.282;2023-05-07T11:00:56;7.75;;;4.50;;
27666;SDS011;15074;50.940;5.282;2023-05-07T11:03:26;8.13;;;5.63;;
27666;SDS011;15074;50.940;5.282;2023-05-07T11:11:18;6.50;;;4.57;;
27666;SDS011;15074;50.940;5.282;2023-05-07T11:13:47;5.20;;;3.92;;
27666;SDS011;15074;50.940;5.282;2023-05-07T11:16:18;4.75;;;3.78;;
27666;SDS011;15074;50.940;5.282;2023-05-07T11:18:48;5.93;;;4.10;;
27666;SDS011;15074;50.940;5.282;2023-05-07T11:24:13;5.72;;;4.53;;
27666;SDS011;15074;50.940;5.282;2023-05-07T11:29:10;5.60;;;4.53;;
27666;SDS011;15074;50.940;5.282;2023-05-07T11:31:37;6.82;;;4.35;;
27666;SDS011;15074;50.940;5.282;2023-05-07T11:34:03;6.05;;;4.70;;
27666;SDS011;15074;50.940;5.282;2023-05-07T11:36:30;6.30;;;4.57;;
27666;SDS011;15074;50.940;5.282;2023-05-07T11:38:57;4.65;;;4.20;;
27666;SDS011;15074;50.940;5.282;2023-05-07T11:41:32;6.47;;;4.10;;
27666;SDS011;15074;50.940;5.282;2023-05-07T11:44:00;5.70;;;4.25;;
27666;SDS011;15074;50.940;5.282;2023-05-07T11:46:26;4.22;;;3.83;;
27666;SDS011;15074;50.940;5.282;2023-05-07T11:48:53;7.03;;;3.85;;
27666;SDS011;15074;50.940;5.282;2023-05-07T11:51:20;6.80;;;3.90;;
27666;SDS011;15074;50.940;5.282;2023-05-07T11:53:47;5.32;;;4.07;;
27666;SDS011;15074;50.940;5.282;2023-05-07T11:56:14;6.43;;;4.32;;
27666;SDS011;15074;50.940;5.282;2023-05-07T11:58:41;4.68;;;4.15;;
27666;SDS011;15074;50.940;5.282;2023-05-07T12:01:09;6.73;;;4.83;;
27666;SDS011;15074;50.940;5.282;2023-05-07T12:03:45;5.65;;;4.47;;
27666;SDS011;15074;50.940;5.282;2023-05-07T12:06:11;6.13;;;4.38;;
27666;SDS011;15074;50.940;5.282;2023-05-07T12:08:39;5.30;;;4.63;;
27666;SDS011;15074;50.940;5.282;2023-05-07T12:11:24;6.23;;;4.33;;
27666;SDS011;15074;50.940;5.282;2023-05-07T12:13:50;5.25;;;4.43;;
27666;SDS011;15074;50.940;5.282;2023-05-07T12:16:18;5.82;;;3.92;;
27666;SDS011;15074;50.940;5.282;2023-05-07T12:18:44;5.13;;;4.63;;
27666;SDS011;15074;50.940;5.282;2023-05-07T12:21:11;4.43;;;3.80;;
27666;SDS011;15074;50.940;5.282;2023-05-07T12:23:37;4.78;;;3.65;;
27666;SDS011;15074;50.940;5.282;2023-05-07T12:26:05;6.05;;;3.28;;
27666;SDS011;15074;50.940;5.282;2023-05-07T12:28:31;6.05;;;3.72;;
27666;SDS011;15074;50.940;5.282;2023-05-07T12:31:01;5.68;;;4.15;;
27666;SDS011;15074;50.940;5.282;2023-05-07T12:33:27;5.28;;;4.53;;
27666;SDS011;15074;50.940;5.282;2023-05-07T12:35:54;5.15;;;4.28;;
27666;SDS011;15074;50.940;5.282;2023-05-07T12:38:21;4.85;;;4.35;;
27666;SDS011;15074;50.940;5.282;2023-05-07T12:40:53;6.82;;;4.15;;
27666;SDS011;15074;50.940;5.282;2023-05-07T12:43:20;5.95;;;4.80;;
27666;SDS011;15074;50.940;5.282;2023-05-07T12:45:47;5.13;;;4.32;;
27666;SDS011;15074;50.940;5.282;2023-05-07T12:48:15;6.15;;;4.03;;
27666;SDS011;15074;50.940;5.282;2023-05-07T12:50:41;4.55;;;3.90;;
27666;SDS011;15074;50.940;5.282;2023-05-07T12:53:09;4.25;;;3.85;;
27666;SDS011;15074;50.940;5.282;2023-05-07T12:55:45;5.85;;;3.92;;
27666;SDS011;15074;50.940;5.282;2023-05-07T13:00:54;6.00;;;3.85;;
27666;SDS011;15074;50.940;5.282;2023-05-07T13:03:27;4.60;;;3.33;;
27666;SDS011;15074;50.940;5.282;2023-05-07T13:05:58;4.13;;;3.63;;
27666;SDS011;15074;50.940;5.282;2023-05-07T13:11:10;5.45;;;3.45;;
27666;SDS011;15074;50.940;5.282;2023-05-07T13:13:38;3.20;;;2.43;;
27666;SDS011;15074;50.940;5.282;2023-05-07T13:16:05;4.70;;;2.70;;
27666;SDS011;15074;50.940;5.282;2023-05-07T13:18:33;5.72;;;2.92;;
27666;SDS011;15074;50.940;5.282;2023-05-07T13:20:59;4.30;;;2.83;;
27666;SDS011;15074;50.940;5.282;2023-05-07T13:23:25;6.22;;;3.38;;
27666;SDS011;15074;50.940;5.282;2023-05-07T13:25:52;4.38;;;3.25;;
27666;SDS011;15074;50.940;5.282;2023-05-07T13:28:19;4.07;;;2.67;;
27666;SDS011;15074;50.940;5.282;2023-05-07T13:30:45;3.30;;;2.00;;
27666;SDS011;15074;50.940;5.282;2023-05-07T13:33:11;3.28;;;2.30;;
27666;SDS011;15074;50.940;5.282;2023-05-07T13:35:37;2.38;;;1.98;;
27666;SDS011;15074;50.940;5.282;2023-05-07T13:38:03;3.00;;;2.50;;
27666;SDS011;15074;50.940;5.282;2023-05-07T13:40:29;3.70;;;2.50;;
27666;SDS011;15074;50.940;5.282;2023-05-07T13:42:56;4.38;;;2.70;;
27666;SDS011;15074;50.940;5.282;2023-05-07T13:45:23;3.83;;;3.10;;
27666;SDS011;15074;50.940;5.282;2023-05-07T13:47:51;4.45;;;2.85;;
27666;SDS011;15074;50.940;5.282;2023-05-07T13:50:17;2.75;;;2.45;;
27666;SDS011;15074;50.940;5.282;2023-05-07T13:52:43;3.05;;;2.72;;
27666;SDS011;15074;50.940;5.282;2023-05-07T13:55:15;3.50;;;2.22;;
27666;SDS011;15074;50.940;5.282;2023-05-07T13:57:54;3.30;;;2.42;;
27666;SDS011;15074;50.940;5.282;2023-05-07T14:00:21;4.05;;;2.55;;
27666;SDS011;15074;50.940;5.282;2023-05-07T14:02:48;4.13;;;1.88;;
27666;SDS011;15074;50.940;5.282;2023-05-07T14:05:16;2.20;;;1.70;;
27666;SDS011;15074;50.940;5.282;2023-05-07T14:07:41;3.58;;;1.80;;
27666;SDS011;15074;50.940;5.282;2023-05-07T14:10:07;2.92;;;1.90;;
27666;SDS011;15074;50.940;5.282;2023-05-07T14:12:34;3.73;;;2.37;;
27666;SDS011;15074;50.940;5.282;2023-05-07T14:15:00;3.05;;;2.20;;
27666;SDS011;15074;50.940;5.282;2023-05-07T14:17:25;3.75;;;2.25;;
27666;SDS011;15074;50.940;5.282;2023-05-07T14:19:52;2.42;;;1.73;;
27666;SDS011;15074;50.940;5.282;2023-05-07T14:22:22;2.75;;;1.30;;
27666;SDS011;15074;50.940;5.282;2023-05-07T14:24:48;2.75;;;1.40;;
27666;SDS011;15074;50.940;5.282;2023-05-07T14:27:14;3.53;;;2.47;;
27666;SDS011;15074;50.940;5.282;2023-05-07T14:29:41;3.80;;;1.67;;
27666;SDS011;15074;50.940;5.282;2023-05-07T14:32:07;2.35;;;1.70;;
27666;SDS011;15074;50.940;5.282;2023-05-07T14:34:33;2.50;;;1.58;;
27666;SDS011;15074;50.940;5.282;2023-05-07T14:36:59;2.25;;;1.73;;
27666;SDS011;15074;50.940;5.282;2023-05-07T14:39:25;1.90;;;1.20;;
27666;SDS011;15074;50.940;5.282;2023-05-07T14:41:51;4.00;;;1.80;;
27666;SDS011;15074;50.940;5.282;2023-05-07T14:44:17;3.55;;;2.20;;
27666;SDS011;15074;50.940;5.282;2023-05-07T14:46:42;3.72;;;2.40;;
27666;SDS011;15074;50.940;5.282;2023-05-07T14:49:08;3.45;;;2.72;;
27666;SDS011;15074;50.940;5.282;2023-05-07T14:51:42;2.42;;;1.60;;
27666;SDS011;15074;50.940;5.282;2023-05-07T14:54:09;3.50;;;1.90;;
27666;SDS011;15074;50.940;5.282;2023-05-07T14:56:35;2.95;;;1.45;;
27666;SDS011;15074;50.940;5.282;2023-05-07T14:59:01;3.65;;;1.80;;
27666;SDS011;15074;50.940;5.282;2023-05-07T15:01:28;3.70;;;1.65;;
27666;SDS011;15074;50.940;5.282;2023-05-07T15:03:54;3.17;;;1.55;;
27666;SDS011;15074;50.940;5.282;2023-05-07T15:06:20;3.25;;;1.60;;
27666;SDS011;15074;50.940;5.282;2023-05-07T15:08:46;3.97;;;1.70;;
27666;SDS011;15074;50.940;5.282;2023-05-07T15:11:13;2.65;;;1.52;;